createdAt,value
2022-08-26T00:00:58.812Z,26.58
2022-08-26T00:03:25.250Z,26.58
2022-08-26T00:05:51.726Z,26.59
2022-08-26T00:08:19.755Z,26.60
2022-08-26T00:10:46.232Z,26.60
2022-08-26T00:13:13.002Z,26.58
2022-08-26T00:15:39.786Z,26.58
2022-08-26T00:18:21.745Z,26.56
2022-08-26T00:20:48.579Z,26.57
2022-08-26T00:23:15.400Z,26.56
2022-08-26T00:25:42.741Z,26.57
2022-08-26T00:28:10.812Z,26.56
2022-08-26T00:30:37.887Z,26.57
2022-08-26T00:33:06.101Z,26.55
2022-08-26T00:35:34.350Z,26.54
2022-08-26T00:38:02.678Z,26.53
2022-08-26T00:40:31.888Z,26.52
2022-08-26T00:42:58.781Z,26.52
2022-08-26T00:45:25.475Z,26.52
2022-08-26T00:48:03.849Z,26.53
2022-08-26T00:50:33.199Z,26.52
2022-08-26T00:53:01.667Z,26.53
2022-08-26T00:55:37.926Z,26.54
2022-08-26T00:58:05.601Z,26.54
2022-08-26T01:00:32.257Z,26.53
2022-08-26T01:03:00.074Z,26.54
2022-08-26T01:05:26.974Z,26.53
2022-08-26T01:07:53.725Z,26.48
2022-08-26T01:10:22.403Z,26.48
2022-08-26T01:12:51.975Z,26.46
2022-08-26T01:15:44.778Z,26.46
2022-08-26T01:18:12.131Z,26.46
2022-08-26T01:20:41.482Z,26.45
2022-08-26T01:23:09.503Z,26.46
2022-08-26T01:25:39.131Z,26.46
2022-08-26T01:28:08.271Z,26.47
2022-08-26T01:30:35.611Z,26.46
2022-08-26T01:33:03.660Z,26.43
2022-08-26T01:35:30.588Z,26.45
2022-08-26T01:37:57.497Z,26.44
2022-08-26T01:40:26.951Z,26.42
2022-08-26T01:42:53.920Z,26.42
2022-08-26T01:45:22.873Z,26.45
2022-08-26T01:47:50.077Z,26.45
2022-08-26T01:50:28.184Z,26.45
2022-08-26T01:52:57.923Z,26.44
2022-08-26T01:55:32.191Z,26.43
2022-08-26T01:58:00.906Z,26.37
2022-08-26T02:00:27.429Z,26.34
2022-08-26T02:03:15.997Z,26.34
2022-08-26T02:05:48.729Z,26.33
2022-08-26T02:08:22.712Z,26.33
2022-08-26T02:10:54.766Z,26.35
2022-08-26T02:13:22.128Z,26.36
2022-08-26T02:15:49.361Z,26.38
2022-08-26T02:18:17.063Z,26.38
2022-08-26T02:20:44.054Z,26.37
2022-08-26T02:23:10.517Z,26.37
2022-08-26T02:25:50.538Z,26.36
2022-08-26T02:28:18.176Z,26.36
2022-08-26T02:30:47.202Z,26.36
2022-08-26T02:33:14.169Z,26.36
2022-08-26T02:35:41.198Z,26.35
2022-08-26T02:38:10.062Z,26.36
2022-08-26T02:40:40.576Z,26.35
2022-08-26T02:43:08.763Z,26.35
2022-08-26T02:45:36.018Z,26.37
2022-08-26T02:48:14.357Z,26.37
2022-08-26T02:50:41.098Z,26.38
2022-08-26T02:53:09.405Z,26.37
2022-08-26T02:55:36.625Z,26.33
2022-08-26T02:58:03.097Z,26.33
2022-08-26T03:00:29.671Z,26.32
2022-08-26T03:02:56.582Z,26.33
2022-08-26T03:05:24.000Z,26.34
2022-08-26T03:07:50.637Z,26.33
2022-08-26T03:10:17.749Z,26.35
2022-08-26T03:12:48.123Z,26.35
2022-08-26T03:15:18.012Z,26.35
2022-08-26T03:17:47.075Z,26.35
2022-08-26T03:20:13.786Z,26.37
2022-08-26T03:22:42.122Z,26.36
2022-08-26T03:25:09.603Z,26.35
2022-08-26T03:27:36.145Z,26.33
2022-08-26T03:30:22.167Z,26.33
2022-08-26T03:32:48.597Z,26.31
2022-08-26T03:35:15.207Z,26.23
2022-08-26T03:37:41.663Z,26.22
2022-08-26T03:40:10.432Z,26.24
2022-08-26T03:42:38.937Z,26.24
2022-08-26T03:45:06.685Z,26.26
2022-08-26T03:47:33.873Z,26.27
2022-08-26T03:50:00.637Z,26.28
2022-08-26T03:52:27.129Z,26.29
2022-08-26T03:54:53.589Z,26.25
2022-08-26T03:57:20.775Z,26.23
2022-08-26T03:59:49.421Z,26.24
2022-08-26T04:02:18.294Z,26.23
2022-08-26T04:04:46.630Z,26.24
2022-08-26T04:07:13.198Z,26.25
2022-08-26T04:09:39.619Z,26.26
2022-08-26T04:12:06.552Z,26.26
2022-08-26T04:14:35.377Z,26.25
2022-08-26T04:17:05.049Z,26.27
2022-08-26T04:19:32.908Z,26.27
2022-08-26T04:21:59.510Z,26.27
2022-08-26T04:24:27.977Z,26.18
2022-08-26T04:26:56.372Z,26.08
2022-08-26T04:29:25.356Z,25.94
2022-08-26T04:31:55.748Z,25.91
2022-08-26T04:34:23.219Z,25.92
2022-08-26T04:36:50.238Z,25.96
2022-08-26T04:39:18.722Z,26.00
2022-08-26T04:41:47.714Z,26.02
2022-08-26T04:44:16.096Z,26.05
2022-08-26T04:46:44.190Z,26.08
2022-08-26T04:49:11.314Z,26.10
2022-08-26T04:51:37.902Z,26.12
2022-08-26T04:54:06.967Z,26.14
2022-08-26T04:56:37.163Z,26.15
2022-08-26T04:59:04.842Z,26.16
2022-08-26T05:01:34.753Z,26.19
2022-08-26T05:04:07.932Z,26.21
2022-08-26T05:06:36.906Z,26.21
2022-08-26T05:09:03.947Z,26.23
2022-08-26T05:11:30.464Z,26.22
2022-08-26T05:14:01.632Z,26.24
2022-08-26T05:16:30.325Z,26.25
2022-08-26T05:18:57.544Z,26.27
2022-08-26T05:21:26.626Z,26.29
2022-08-26T05:23:57.003Z,26.29
2022-08-26T05:26:26.181Z,26.32
2022-08-26T05:28:54.685Z,26.31
2022-08-26T05:31:23.729Z,26.33
2022-08-26T05:33:50.373Z,26.31
2022-08-26T05:36:18.810Z,26.39
2022-08-26T05:38:45.443Z,26.40
2022-08-26T05:41:24.838Z,26.41
2022-08-26T05:43:52.378Z,26.43
2022-08-26T05:46:19.336Z,26.46
2022-08-26T05:48:46.878Z,26.49
2022-08-26T05:51:14.283Z,26.52
2022-08-26T05:53:43.826Z,26.54
2022-08-26T05:56:24.708Z,26.57
2022-08-26T05:58:51.184Z,26.61
2022-08-26T06:01:19.581Z,26.63
2022-08-26T06:03:50.017Z,26.66
2022-08-26T06:06:20.679Z,26.68
2022-08-26T06:08:54.069Z,26.70
2022-08-26T06:11:25.387Z,26.73
2022-08-26T06:13:53.392Z,26.75
2022-08-26T06:16:23.005Z,26.77
2022-08-26T06:18:51.746Z,26.78
2022-08-26T06:21:22.618Z,26.79
2022-08-26T06:24:08.796Z,26.82
2022-08-26T06:26:36.713Z,26.83
2022-08-26T06:29:03.761Z,26.86
2022-08-26T06:31:32.076Z,26.87
2022-08-26T06:33:59.625Z,26.89
2022-08-26T06:36:28.657Z,26.90
2022-08-26T06:38:56.809Z,26.92
2022-08-26T06:41:23.510Z,26.94
2022-08-26T06:43:50.516Z,26.96
2022-08-26T06:46:18.733Z,26.98
2022-08-26T06:48:46.091Z,26.99
2022-08-26T06:51:17.062Z,27.00
2022-08-26T06:53:46.874Z,27.02
2022-08-26T06:56:15.053Z,27.05
2022-08-26T06:58:42.634Z,27.06
2022-08-26T07:01:19.807Z,27.07
2022-08-26T07:03:48.365Z,27.07
2022-08-26T07:06:15.569Z,27.09
2022-08-26T07:08:43.183Z,27.09
2022-08-26T07:11:10.502Z,27.10
2022-08-26T07:13:37.751Z,27.11
2022-08-26T07:16:08.404Z,27.12
2022-08-26T07:18:36.761Z,27.12
2022-08-26T07:21:07.165Z,27.13
2022-08-26T07:23:34.330Z,27.14
2022-08-26T07:26:05.021Z,27.15
2022-08-26T07:28:31.535Z,27.15
2022-08-26T07:30:58.282Z,27.16
2022-08-26T07:33:24.835Z,27.17
2022-08-26T07:35:52.365Z,27.18
2022-08-26T07:38:18.945Z,27.19
2022-08-26T07:40:45.516Z,27.20
2022-08-26T07:43:12.095Z,27.21
2022-08-26T07:45:38.832Z,27.20
2022-08-26T07:48:05.364Z,27.21
2022-08-26T07:50:49.242Z,27.22
2022-08-26T07:53:18.177Z,27.25
2022-08-26T07:55:46.227Z,27.25
2022-08-26T07:58:12.740Z,27.27
2022-08-26T08:00:39.469Z,27.26
2022-08-26T08:03:06.342Z,27.28
2022-08-26T08:05:33.911Z,27.28
2022-08-26T08:08:01.464Z,27.29
2022-08-26T08:10:48.729Z,27.31
2022-08-26T08:13:15.457Z,27.31
2022-08-26T08:15:41.905Z,27.32
2022-08-26T08:18:15.757Z,27.35
2022-08-26T08:20:47.715Z,27.36
2022-08-26T08:23:29.693Z,27.37
2022-08-26T08:26:03.244Z,27.39
2022-08-26T08:28:29.877Z,27.41
2022-08-26T08:30:57.057Z,27.45
2022-08-26T08:33:24.478Z,27.46
2022-08-26T08:35:50.949Z,27.50
2022-08-26T08:38:17.561Z,27.52
2022-08-26T08:40:44.801Z,27.55
2022-08-26T08:43:13.703Z,27.56
2022-08-26T08:45:47.077Z,27.60
2022-08-26T08:48:18.849Z,27.62
2022-08-26T08:50:50.593Z,27.64
2022-08-26T08:53:37.491Z,27.67
2022-08-26T08:56:04.175Z,27.68
2022-08-26T08:58:37.346Z,27.70
2022-08-26T09:01:06.118Z,27.72
2022-08-26T09:03:42.959Z,27.73
2022-08-26T09:06:17.040Z,27.74
2022-08-26T09:08:45.493Z,27.77
2022-08-26T09:11:12.107Z,27.78
2022-08-26T09:13:39.887Z,27.79
2022-08-26T09:16:27.719Z,27.79
2022-08-26T09:19:15.175Z,27.82
2022-08-26T09:21:45.784Z,27.82
2022-08-26T09:24:13.966Z,27.85
2022-08-26T09:26:40.983Z,27.88
2022-08-26T09:29:15.913Z,27.89
2022-08-26T09:31:42.598Z,27.90
2022-08-26T09:34:17.876Z,27.93
2022-08-26T09:36:45.557Z,27.93
2022-08-26T09:39:24.061Z,27.95
2022-08-26T09:42:09.425Z,27.97
2022-08-26T09:44:52.093Z,27.98
2022-08-26T09:47:21.863Z,28.01
2022-08-26T09:49:56.640Z,28.03
2022-08-26T09:52:24.650Z,28.04
2022-08-26T09:55:03.407Z,28.06
2022-08-26T09:57:31.525Z,28.07
2022-08-26T10:00:01.238Z,28.10
2022-08-26T10:02:32.083Z,28.12
2022-08-26T10:04:59.288Z,28.12
2022-08-26T10:07:40.341Z,28.15
2022-08-26T10:10:12.557Z,28.16
2022-08-26T10:12:49.375Z,28.16
2022-08-26T10:15:16.667Z,28.16
2022-08-26T10:18:11.138Z,28.17
2022-08-26T10:20:46.038Z,28.17
2022-08-26T10:23:17.294Z,28.13
2022-08-26T10:25:47.850Z,28.15
2022-08-26T10:28:25.445Z,28.13
2022-08-26T10:30:56.491Z,28.15
2022-08-26T10:33:23.493Z,28.17
2022-08-26T10:35:53.206Z,28.17
2022-08-26T10:38:23.901Z,28.15
2022-08-26T10:40:55.071Z,28.15
2022-08-26T10:43:25.704Z,28.16
2022-08-26T10:45:55.760Z,28.16
2022-08-26T10:48:35.433Z,28.15
2022-08-26T10:51:04.198Z,28.13
2022-08-26T10:53:32.990Z,28.09
2022-08-26T10:56:24.961Z,28.08
2022-08-26T10:58:52.450Z,28.07
2022-08-26T11:01:46.999Z,28.08
2022-08-26T11:04:35.416Z,28.09
2022-08-26T11:07:23.657Z,28.06
2022-08-26T11:09:52.146Z,28.03
2022-08-26T11:12:37.262Z,27.99
2022-08-26T11:15:10.213Z,27.98
2022-08-26T11:17:48.235Z,28.00
2022-08-26T11:20:23.884Z,27.99
2022-08-26T11:22:51.626Z,27.98
2022-08-26T11:25:19.326Z,27.98
2022-08-26T11:27:46.370Z,27.95
2022-08-26T11:30:15.653Z,27.95
2022-08-26T11:32:52.740Z,27.94
2022-08-26T11:35:24.245Z,27.91
2022-08-26T11:37:53.138Z,27.90
2022-08-26T11:40:22.219Z,27.90
2022-08-26T11:42:58.134Z,27.89
2022-08-26T11:45:41.018Z,27.88
2022-08-26T11:48:28.238Z,27.88
2022-08-26T11:51:03.847Z,27.88
2022-08-26T11:53:32.653Z,27.91
2022-08-26T11:56:01.714Z,27.90
2022-08-26T11:58:28.817Z,27.89
2022-08-26T12:01:09.800Z,27.90
2022-08-26T12:03:44.231Z,27.91
2022-08-26T12:06:31.090Z,27.91
2022-08-26T12:08:59.878Z,27.88
2022-08-26T12:11:26.949Z,27.87
2022-08-26T12:17:33.715Z,27.85
2022-08-26T12:20:19.226Z,27.83
2022-08-26T12:22:52.364Z,27.83
2022-08-26T12:25:36.130Z,27.82
2022-08-26T12:28:05.407Z,27.82
2022-08-26T12:30:32.046Z,27.83
2022-08-26T12:33:22.874Z,27.84
2022-08-26T12:35:54.199Z,27.83
2022-08-26T12:38:23.317Z,27.84
2022-08-26T12:40:50.312Z,27.84
2022-08-26T12:43:36.236Z,27.84
2022-08-26T12:46:04.580Z,27.85
2022-08-26T12:48:36.033Z,27.86
2022-08-26T12:51:03.117Z,27.87
2022-08-26T12:53:32.220Z,27.89
2022-08-26T12:56:01.483Z,27.90
2022-08-26T12:58:28.056Z,27.89
2022-08-26T13:01:00.742Z,27.89
2022-08-26T13:03:54.622Z,27.86
2022-08-26T13:06:24.050Z,27.86
2022-08-26T13:09:06.474Z,27.86
2022-08-26T13:11:34.796Z,27.86
2022-08-26T13:14:01.777Z,27.86
2022-08-26T13:16:28.818Z,27.86
2022-08-26T13:18:57.188Z,27.86
2022-08-26T13:21:25.864Z,27.83
2022-08-26T13:23:52.886Z,27.81
2022-08-26T13:26:19.658Z,27.79
2022-08-26T13:28:47.706Z,27.77
2022-08-26T13:31:29.606Z,27.74
2022-08-26T13:33:56.991Z,27.71
2022-08-26T13:36:23.533Z,27.68
2022-08-26T13:38:51.924Z,27.64
2022-08-26T13:41:19.293Z,27.61
2022-08-26T13:43:56.437Z,27.57
2022-08-26T13:46:23.097Z,27.54
2022-08-26T13:48:49.641Z,27.50
2022-08-26T13:51:18.529Z,27.48
2022-08-26T13:53:44.985Z,27.46
2022-08-26T13:56:11.567Z,27.44
2022-08-26T13:58:38.009Z,27.42
2022-08-26T14:01:04.614Z,27.40
2022-08-26T14:03:31.281Z,27.39
2022-08-26T14:05:57.838Z,27.37
2022-08-26T14:08:24.329Z,27.35
2022-08-26T14:10:50.892Z,27.34
2022-08-26T14:13:18.348Z,27.31
2022-08-26T14:15:48.199Z,27.29
2022-08-26T14:18:16.978Z,27.27
2022-08-26T14:20:47.591Z,27.27
2022-08-26T14:23:14.631Z,27.26
2022-08-26T14:25:41.175Z,27.25
2022-08-26T14:28:07.800Z,27.23
2022-08-26T14:30:34.417Z,27.21
2022-08-26T14:33:00.861Z,27.18
2022-08-26T14:35:28.742Z,27.17
2022-08-26T14:37:55.826Z,27.16
2022-08-26T14:40:23.207Z,27.13
2022-08-26T14:42:53.805Z,27.12
2022-08-26T14:45:22.759Z,27.12
2022-08-26T14:47:50.329Z,27.10
2022-08-26T14:50:18.392Z,27.09
2022-08-26T14:53:03.538Z,27.08
2022-08-26T14:55:32.436Z,27.06
2022-08-26T14:57:58.977Z,27.03
2022-08-26T15:00:26.272Z,27.03
2022-08-26T15:02:53.185Z,27.02
2022-08-26T15:05:19.993Z,27.02
2022-08-26T15:07:49.071Z,27.01
2022-08-26T15:10:19.808Z,26.99
2022-08-26T15:12:52.179Z,26.98
2022-08-26T15:15:26.271Z,26.95
2022-08-26T15:17:55.747Z,26.96
2022-08-26T15:20:22.268Z,26.96
2022-08-26T15:22:48.906Z,26.94
2022-08-26T15:25:20.297Z,26.93
2022-08-26T15:27:51.845Z,26.93
2022-08-26T15:30:19.662Z,26.92
2022-08-26T15:32:48.390Z,26.93
2022-08-26T15:35:19.893Z,26.94
2022-08-26T15:37:54.170Z,26.92
2022-08-26T15:40:24.385Z,26.92
2022-08-26T15:43:06.115Z,26.91
2022-08-26T15:45:45.088Z,26.90
2022-08-26T15:48:14.524Z,26.89
2022-08-26T15:51:00.447Z,26.91
2022-08-26T15:53:31.785Z,26.89
2022-08-26T15:56:02.524Z,26.89
2022-08-26T15:58:32.483Z,26.89
2022-08-26T16:01:07.458Z,26.89
2022-08-26T16:03:33.967Z,26.89
2022-08-26T16:06:00.799Z,26.89
2022-08-26T16:08:27.319Z,26.87
2022-08-26T16:10:56.839Z,26.87
2022-08-26T16:13:27.331Z,26.87
2022-08-26T16:16:10.366Z,26.87
2022-08-26T16:18:37.130Z,26.86
2022-08-26T16:21:13.309Z,26.83
2022-08-26T16:23:46.817Z,26.83
2022-08-26T16:26:21.774Z,26.83
2022-08-26T16:28:48.422Z,26.82
2022-08-26T16:31:15.200Z,26.82
2022-08-26T16:33:41.707Z,26.82
2022-08-26T16:36:08.586Z,26.81
2022-08-26T16:38:35.872Z,26.82
2022-08-26T16:41:02.766Z,26.81
2022-08-26T16:43:29.331Z,26.81
2022-08-26T16:45:56.088Z,26.81
2022-08-26T16:48:23.571Z,26.80
2022-08-26T16:50:50.247Z,26.79
2022-08-26T16:53:16.692Z,26.78
2022-08-26T16:55:46.911Z,26.78
2022-08-26T16:58:13.528Z,26.78
2022-08-26T17:00:41.071Z,26.77
2022-08-26T17:03:07.660Z,26.74
2022-08-26T17:05:44.638Z,26.71
2022-08-26T17:08:11.745Z,26.69
2022-08-26T17:10:38.576Z,26.65
2022-08-26T17:13:05.031Z,26.65
2022-08-26T17:15:31.756Z,26.68
2022-08-26T17:17:58.262Z,26.69
2022-08-26T17:20:25.792Z,26.70
2022-08-26T17:22:53.703Z,26.68
2022-08-26T17:25:20.179Z,26.65
2022-08-26T17:27:46.965Z,26.63
2022-08-26T17:30:13.764Z,26.62
2022-08-26T17:32:41.437Z,26.64
2022-08-26T17:35:08.234Z,26.65
2022-08-26T17:37:35.069Z,26.65
2022-08-26T17:40:05.781Z,26.68
2022-08-26T17:42:32.327Z,26.68
2022-08-26T17:44:58.888Z,26.65
2022-08-26T17:47:25.418Z,26.62
2022-08-26T17:49:51.857Z,26.59
2022-08-26T17:52:18.442Z,26.58
2022-08-26T17:54:44.893Z,26.60
2022-08-26T17:57:11.363Z,26.57
2022-08-26T17:59:38.670Z,26.54
2022-08-26T18:02:07.408Z,26.56
2022-08-26T18:04:33.880Z,26.61
2022-08-26T18:07:00.412Z,26.62
2022-08-26T18:09:29.191Z,26.63
2022-08-26T18:11:56.119Z,26.65
2022-08-26T18:14:22.589Z,26.63
2022-08-26T18:16:48.996Z,26.57
2022-08-26T18:19:15.712Z,26.52
2022-08-26T18:21:42.194Z,26.48
2022-08-26T18:24:13.386Z,26.45
2022-08-26T18:26:41.442Z,26.44
2022-08-26T18:29:08.160Z,26.46
2022-08-26T18:31:34.860Z,26.47
2022-08-26T18:34:02.201Z,26.47
2022-08-26T18:36:34.049Z,26.47
2022-08-26T18:39:01.048Z,26.46
2022-08-26T18:41:28.728Z,26.43
2022-08-26T18:43:55.602Z,26.39
2022-08-26T18:46:24.945Z,26.36
2022-08-26T18:48:52.268Z,26.38
2022-08-26T18:51:19.716Z,26.41
2022-08-26T18:53:46.335Z,26.43
2022-08-26T18:56:15.374Z,26.45
2022-08-26T18:58:47.495Z,26.48
2022-08-26T19:01:17.425Z,26.48
2022-08-26T19:07:00.418Z,26.52
2022-08-26T19:09:27.271Z,26.52
2022-08-26T19:11:54.292Z,26.53
2022-08-26T19:14:20.801Z,26.53
2022-08-26T19:16:48.652Z,26.54
2022-08-26T19:19:15.365Z,26.56
2022-08-26T19:21:41.949Z,26.57
2022-08-26T19:24:15.346Z,26.56
2022-08-26T19:26:57.454Z,26.58
2022-08-26T19:29:25.771Z,26.58
2022-08-26T19:31:52.336Z,26.59
2022-08-26T19:34:20.955Z,26.58
2022-08-26T19:36:47.710Z,26.60
2022-08-26T19:39:14.219Z,26.59
2022-08-26T19:41:40.803Z,26.60
2022-08-26T19:44:13.158Z,26.61
2022-08-26T19:46:40.387Z,26.61
2022-08-26T19:49:07.053Z,26.62
2022-08-26T19:51:35.003Z,26.62
2022-08-26T19:54:01.777Z,26.63
2022-08-26T19:56:28.638Z,26.63
2022-08-26T19:58:55.630Z,26.65
2022-08-26T20:01:22.666Z,26.64
2022-08-26T20:03:49.441Z,26.63
2022-08-26T20:06:16.895Z,26.63
2022-08-26T20:08:44.674Z,26.65
2022-08-26T20:11:14.569Z,26.63
2022-08-26T20:13:41.887Z,26.63
2022-08-26T20:16:10.388Z,26.64
2022-08-26T20:18:55.342Z,26.64
2022-08-26T20:21:27.541Z,26.64
2022-08-26T20:23:54.853Z,26.65
2022-08-26T20:26:21.282Z,26.64
2022-08-26T20:28:47.693Z,26.65
2022-08-26T20:31:19.383Z,26.65
2022-08-26T20:33:46.683Z,26.66
2022-08-26T20:36:13.641Z,26.66
2022-08-26T20:38:40.068Z,26.67
2022-08-26T20:41:06.754Z,26.66
2022-08-26T20:43:33.257Z,26.67
2022-08-26T20:46:00.554Z,26.67
2022-08-26T20:48:27.134Z,26.66
2022-08-26T20:50:56.666Z,26.66
2022-08-26T20:53:24.284Z,26.65
2022-08-26T20:55:53.821Z,26.66
2022-08-26T20:58:23.738Z,26.65
2022-08-26T21:00:50.501Z,26.65
2022-08-26T21:03:17.021Z,26.64
2022-08-26T21:05:43.531Z,26.64
2022-08-26T21:08:10.240Z,26.65
2022-08-26T21:10:39.392Z,26.65
2022-08-26T21:13:06.513Z,26.65
2022-08-26T21:15:33.098Z,26.66
2022-08-26T21:17:59.849Z,26.66
2022-08-26T21:20:26.374Z,26.66
2022-08-26T21:22:52.942Z,26.66
2022-08-26T21:25:19.429Z,26.66
2022-08-26T21:27:46.087Z,26.67
2022-08-26T21:30:13.738Z,26.67
2022-08-26T21:32:40.471Z,26.67
2022-08-26T21:35:07.546Z,26.66
2022-08-26T21:37:34.264Z,26.66
2022-08-26T21:40:02.087Z,26.64
2022-08-26T21:42:32.996Z,26.64
2022-08-26T21:44:59.591Z,26.63
2022-08-26T21:47:26.152Z,26.63
2022-08-26T21:49:53.258Z,26.62
2022-08-26T21:52:21.232Z,26.61
2022-08-26T21:54:49.291Z,26.61
2022-08-26T21:57:16.598Z,26.61
2022-08-26T21:59:43.082Z,26.60
2022-08-26T22:02:11.162Z,26.60
2022-08-26T22:04:37.757Z,26.60
2022-08-26T22:07:04.317Z,26.61
2022-08-26T22:09:31.592Z,26.60
2022-08-26T22:11:58.748Z,26.60
2022-08-26T22:14:30.629Z,26.60
2022-08-26T22:16:58.680Z,26.60
2022-08-26T22:19:25.286Z,26.61
2022-08-26T22:21:53.550Z,26.61
2022-08-26T22:24:20.985Z,26.61
2022-08-26T22:26:47.561Z,26.61
2022-08-26T22:29:14.655Z,26.58
2022-08-26T22:31:41.642Z,26.49
2022-08-26T22:34:09.384Z,26.47
2022-08-26T22:36:37.409Z,26.41
2022-08-26T22:39:10.404Z,26.34
2022-08-26T22:41:37.162Z,26.31
2022-08-26T22:44:04.094Z,26.31
2022-08-26T22:46:30.857Z,26.35
2022-08-26T22:48:57.330Z,26.37
2022-08-26T22:51:23.819Z,26.38
2022-08-26T22:53:50.290Z,26.41
2022-08-26T22:56:19.037Z,26.42
2022-08-26T22:58:45.727Z,26.43
2022-08-26T23:01:12.676Z,26.45
2022-08-26T23:03:39.238Z,26.45
2022-08-26T23:06:06.391Z,26.47
2022-08-26T23:08:32.863Z,26.46
2022-08-26T23:10:59.310Z,26.45
2022-08-26T23:13:25.769Z,26.44
2022-08-26T23:15:59.374Z,26.42
2022-08-26T23:18:25.883Z,26.42
2022-08-26T23:20:52.417Z,26.42
2022-08-26T23:23:18.873Z,26.44
2022-08-26T23:25:45.273Z,26.45
2022-08-26T23:28:12.785Z,26.46
2022-08-26T23:30:39.302Z,26.46
2022-08-26T23:33:05.861Z,26.44
2022-08-26T23:35:32.371Z,26.42
2022-08-26T23:37:59.356Z,26.30
2022-08-26T23:40:27.930Z,26.26
2022-08-26T23:42:55.674Z,26.28
2022-08-26T23:45:22.729Z,26.28
2022-08-26T23:47:50.561Z,26.28
2022-08-26T23:50:18.470Z,26.31
2022-08-26T23:53:04.056Z,26.33
2022-08-26T23:55:31.506Z,26.36
2022-08-26T23:57:57.968Z,26.39
